Time;durP1;ratioP1;P1;durP2;ratioP2;P2;SDS_P1;SDS_P2;PMS_P1;PMS_P2;Temp;Humidity;BMP_temperature;BMP_pressure;BME280_temperature;BME280_humidity;BME280_pressure;Samples;Min_cycle;Max_cycle;Signal;HPM_P1;HPM_P2
2022/10/19 00:01:48;;;;;;;;;15.00;15.00;;;;;16.65;100.00;101883.38;4952943;28;45299;-76
2022/10/19 00:04:13;;;;;;;;;15.00;15.00;;;;;16.75;100.00;101880.41;4948469;28;45490;-76
2022/10/19 00:06:38;;;;;;;;;18.00;17.33;;;;;16.75;100.00;101875.03;4939660;28;45296;-76
2022/10/19 00:09:10;;;;;;;;;18.33;18.00;;;;;16.83;100.00;101889.38;4948724;28;45376;-76
2022/10/19 00:11:39;;;;;;;;;15.33;15.33;;;;;16.77;100.00;101872.19;4943391;28;45404;-76
2022/10/19 00:14:05;;;;;;;;;12.33;12.33;;;;;16.88;100.00;101886.97;4947848;28;46306;-76
2022/10/19 00:16:34;;;;;;;;;17.33;17.33;;;;;16.79;100.00;101873.66;4942882;28;47488;-74
2022/10/19 00:19:08;;;;;;;;;16.33;16.33;;;;;16.98;100.00;101886.66;4940211;28;45250;-74
2022/10/19 00:21:34;;;;;;;;;16.00;16.00;;;;;16.99;100.00;101880.25;4952259;28;45329;-75
2022/10/19 00:24:00;;;;;;;;;13.67;13.00;;;;;17.03;100.00;101887.75;4942877;28;45388;-75
2022/10/19 00:26:25;;;;;;;;;14.00;14.00;;;;;17.06;100.00;101883.84;4960318;28;47254;-75
2022/10/19 00:28:55;;;;;;;;;12.00;12.00;;;;;17.00;100.00;101865.84;4946850;28;45275;-76
2022/10/19 00:31:20;;;;;;;;;13.00;13.00;;;;;17.00;100.00;101874.69;4943734;28;45349;-76
2022/10/19 00:33:46;;;;;;;;;13.00;13.00;;;;;17.03;100.00;101879.69;4943213;28;45500;-74
2022/10/19 00:36:24;;;;;;;;;13.33;12.67;;;;;17.04;100.00;101885.91;4943069;28;46275;-75
2022/10/19 00:38:50;;;;;;;;;12.00;11.00;;;;;16.96;100.00;101864.53;4943286;28;45653;-75
2022/10/19 00:41:17;;;;;;;;;12.33;12.00;;;;;16.97;100.00;101867.03;4943366;28;45250;-76
2022/10/19 00:43:50;;;;;;;;;13.33;12.33;;;;;16.89;100.00;101846.50;4943208;28;45412;-75
2022/10/19 00:46:15;;;;;;;;;13.33;12.67;;;;;16.85;100.00;101850.56;4942776;28;45474;-76
2022/10/19 00:48:41;;;;;;;;;12.00;12.00;;;;;16.83;100.00;101852.63;4943190;28;45335;-75
2022/10/19 00:51:06;;;;;;;;;17.33;17.33;;;;;16.90;100.00;101855.38;4943075;28;45208;-76
2022/10/19 00:53:32;;;;;;;;;12.33;12.00;;;;;16.90;100.00;101852.69;4943001;28;45258;-75
2022/10/19 00:56:04;;;;;;;;;12.00;12.00;;;;;16.82;100.00;101829.47;4942682;28;46494;-76
2022/10/19 00:58:30;;;;;;;;;12.67;12.00;;;;;16.86;100.00;101846.91;4943182;28;45483;-75
2022/10/19 01:00:57;;;;;;;;;11.33;10.33;;;;;16.89;100.00;101843.00;4958066;28;45474;-76
2022/10/19 01:03:23;;;;;;;;;14.67;14.00;;;;;16.83;100.00;101831.16;4943534;28;45307;-75
2022/10/19 01:05:48;;;;;;;;;12.00;12.00;;;;;16.70;100.00;101810.34;4942775;28;46112;-76
2022/10/19 01:08:14;;;;;;;;;14.67;14.00;;;;;16.84;100.00;101831.97;4942422;28;45329;-76
2022/10/19 01:11:07;;;;;;;;;11.00;11.00;;;;;16.81;100.00;101824.28;4942939;28;46525;-75
2022/10/19 01:14:04;;;;;;;;;12.33;12.33;;;;;16.85;100.00;101839.03;4942513;28;45337;-75
2022/10/19 01:16:29;;;;;;;;;15.67;13.00;;;;;16.81;100.00;101830.50;4970998;28;48179;-75
2022/10/19 01:19:22;;;;;;;;;12.00;11.00;;;;;16.82;100.00;101839.41;4942786;28;45543;-76
2022/10/19 01:22:02;;;;;;;;;11.67;10.67;;;;;16.78;100.00;101841.63;4928777;28;45397;-76
2022/10/19 01:24:49;;;;;;;;;11.00;11.00;;;;;16.82;100.00;101848.25;4949218;28;45286;-75
2022/10/19 01:27:30;;;;;;;;;11.00;9.00;;;;;16.79;100.00;101848.63;4946409;28;46377;-76
2022/10/19 01:30:07;;;;;;;;;12.67;11.67;;;;;16.75;100.00;101844.69;4942556;28;45532;-75
2022/10/19 01:32:39;;;;;;;;;12.00;11.00;;;;;16.72;100.00;101839.69;4957870;28;45391;-75
2022/10/19 01:35:23;;;;;;;;;10.67;10.67;;;;;16.66;100.00;101841.28;4976838;28;46095;-76
2022/10/19 01:37:52;;;;;;;;;13.00;11.67;;;;;16.55;100.00;101829.16;4942319;28;45380;-77
2022/10/19 01:40:27;;;;;;;;;13.33;11.67;;;;;16.52;100.00;101832.22;4942386;28;45310;-76
2022/10/19 01:43:08;;;;;;;;;10.67;10.00;;;;;16.49;100.00;101825.38;4942294;28;45637;-76
2022/10/19 01:45:51;;;;;;;;;13.33;13.00;;;;;16.46;100.00;101827.63;4942323;28;45369;-75
2022/10/19 01:48:24;;;;;;;;;12.33;12.00;;;;;16.38;100.00;101815.94;4963728;28;48448;-76
2022/10/19 01:50:56;;;;;;;;;12.00;12.00;;;;;16.42;100.00;101819.09;4976236;28;46223;-76
2022/10/19 01:53:25;;;;;;;;;10.67;9.33;;;;;16.44;100.00;101810.88;4954988;28;45368;-76
2022/10/19 01:55:53;;;;;;;;;11.33;11.33;;;;;16.38;100.00;101807.91;4953694;28;46050;-76
2022/10/19 01:58:26;;;;;;;;;10.00;10.00;;;;;16.41;100.00;101807.53;4942106;28;45437;-76
2022/10/19 02:00:53;;;;;;;;;9.33;9.33;;;;;16.46;100.00;101808.84;4948207;28;45223;-76
2022/10/19 02:03:19;;;;;;;;;12.00;12.00;;;;;16.47;100.00;101814.03;4943292;28;45460;-76
2022/10/19 02:05:47;;;;;;;;;10.67;10.33;;;;;16.52;100.00;101806.22;4950734;28;46013;-76
2022/10/19 02:08:26;;;;;;;;;11.67;11.67;;;;;16.52;100.00;101806.22;4972841;28;47422;-76
2022/10/19 02:10:53;;;;;;;;;13.00;11.00;;;;;16.50;100.00;101796.72;4941954;28;45346;-75
2022/10/19 02:13:20;;;;;;;;;12.67;11.67;;;;;16.51;100.00;101791.16;4941846;28;45467;-75
2022/10/19 02:15:51;;;;;;;;;11.33;10.67;;;;;16.48;100.00;101779.97;4941844;28;45301;-75
2022/10/19 02:18:24;;;;;;;;;13.00;12.67;;;;;16.49;100.00;101776.28;4941638;28;45318;-75
2022/10/19 02:20:49;;;;;;;;;11.67;11.67;;;;;16.42;100.00;101770.81;4948903;28;45284;-75
2022/10/19 02:23:19;;;;;;;;;10.33;10.33;;;;;16.55;100.00;101774.69;4945265;28;45255;-75
2022/10/19 02:25:44;;;;;;;;;11.00;11.00;;;;;16.50;100.00;101776.09;4955265;28;45527;-76
2022/10/19 02:28:09;;;;;;;;;11.00;11.00;;;;;16.43;100.00;101758.25;4941550;28;46134;-75
2022/10/19 02:30:35;;;;;;;;;10.67;10.67;;;;;16.52;100.00;101771.34;4941598;28;45497;-76
2022/10/19 02:33:00;;;;;;;;;11.67;11.67;;;;;16.53;100.00;101775.69;4941718;28;45533;-76
2022/10/19 02:35:26;;;;;;;;;9.00;9.00;;;;;16.54;100.00;101768.47;4952841;28;46264;-76
2022/10/19 02:37:51;;;;;;;;;13.67;11.67;;;;;16.48;100.00;101764.69;4941917;28;45476;-76
2022/10/19 02:40:17;;;;;;;;;12.67;10.00;;;;;16.46;100.00;101766.72;4941513;28;45396;-76
2022/10/19 02:42:49;;;;;;;;;12.00;12.00;;;;;16.45;100.00;101765.06;4953722;28;45295;-75
2022/10/19 02:45:35;;;;;;;;;12.00;12.00;;;;;16.31;100.00;101736.44;4941504;28;45356;-76
2022/10/19 02:48:13;;;;;;;;;11.00;10.00;;;;;16.36;100.00;101750.09;4941168;28;47797;-76
2022/10/19 02:50:43;;;;;;;;;14.00;14.00;;;;;16.40;100.00;101746.84;4940899;28;45402;-76
2022/10/19 02:53:08;;;;;;;;;11.00;11.00;;;;;16.36;100.00;101744.75;4941086;28;45409;-76
2022/10/19 02:55:33;;;;;;;;;11.00;11.00;;;;;16.31;100.00;101747.97;4940002;28;45858;-76
2022/10/19 02:57:59;;;;;;;;;12.00;10.33;;;;;16.32;100.00;101751.50;4941176;28;46047;-75
2022/10/19 03:00:24;;;;;;;;;13.00;13.00;;;;;16.25;100.00;101748.75;4943814;28;45418;-76
2022/10/19 03:02:49;;;;;;;;;15.00;13.67;;;;;16.25;100.00;101749.56;4944929;28;45816;-76
2022/10/19 03:05:15;;;;;;;;;12.67;12.33;;;;;16.23;100.00;101738.22;4940714;28;45382;-76
2022/10/19 03:07:41;;;;;;;;;18.00;16.67;;;;;16.21;100.00;101739.41;4939386;28;50187;-75
2022/10/19 03:10:06;;;;;;;;;13.33;12.00;;;;;16.18;100.00;101737.94;4957660;28;45294;-75
2022/10/19 03:12:32;;;;;;;;;13.00;13.00;;;;;16.21;100.00;101731.34;4950047;28;45647;-77
2022/10/19 03:14:57;;;;;;;;;15.00;15.00;;;;;16.15;100.00;101728.41;4953272;28;46056;-76
2022/10/19 03:17:22;;;;;;;;;13.67;13.67;;;;;16.10;100.00;101719.28;4947902;28;47026;-76
2022/10/19 03:19:48;;;;;;;;;15.33;13.00;;;;;16.07;100.00;101716.97;4946238;28;45313;-76
2022/10/19 03:22:13;;;;;;;;;11.00;11.00;;;;;16.08;100.00;101719.47;4942484;28;45304;-76
2022/10/19 03:24:39;;;;;;;;;11.67;11.67;;;;;15.96;100.00;101691.44;4948755;28;45887;-76
2022/10/19 03:27:04;;;;;;;;;16.00;16.00;;;;;16.02;100.00;101704.94;4963784;28;48448;-76
2022/10/19 03:29:30;;;;;;;;;16.67;16.33;;;;;15.98;100.00;101692.13;4941009;28;45262;-75
2022/10/19 03:31:55;;;;;;;;;11.33;11.33;;;;;16.00;100.00;101696.25;4940957;28;45142;-75
2022/10/19 03:34:20;;;;;;;;;12.67;12.67;;;;;16.03;100.00;101698.56;4940464;28;45235;-76
2022/10/19 03:36:46;;;;;;;;;13.00;11.67;;;;;16.02;100.00;101696.06;4940659;28;45337;-76
2022/10/19 03:39:13;;;;;;;;;14.00;12.00;;;;;15.99;100.00;101686.56;4940512;28;45274;-76
2022/10/19 03:41:39;;;;;;;;;14.00;12.00;;;;;16.01;100.00;101684.50;4941008;28;45345;-76
2022/10/19 03:44:06;;;;;;;;;15.00;14.00;;;;;16.05;100.00;101684.13;4940355;28;45447;-75
2022/10/19 03:46:31;;;;;;;;;13.67;13.00;;;;;16.05;100.00;101684.97;4940466;28;45522;-75
2022/10/19 03:48:57;;;;;;;;;12.67;10.00;;;;;16.11;100.00;101691.44;4940669;28;45421;-76
2022/10/19 03:51:25;;;;;;;;;13.00;13.00;;;;;16.03;100.00;101679.81;4940433;28;45803;-76
2022/10/19 03:53:52;;;;;;;;;14.33;12.33;;;;;16.18;100.00;101699.53;4940552;28;45269;-75
2022/10/19 03:56:20;;;;;;;;;18.33;18.00;;;;;16.15;100.00;101687.34;4952423;28;47131;-75
2022/10/19 03:58:47;;;;;;;;;17.00;17.00;;;;;16.05;100.00;101668.91;4940479;28;45313;-76
2022/10/19 04:01:19;;;;;;;;;18.00;15.67;;;;;16.24;100.00;101693.44;4949999;28;45337;-76
2022/10/19 04:03:44;;;;;;;;;13.00;13.00;;;;;16.21;100.00;101683.09;4943816;28;45878;-75
2022/10/19 04:06:13;;;;;;;;;18.00;18.00;;;;;16.26;100.00;101697.56;4971618;28;48144;-75
2022/10/19 04:08:39;;;;;;;;;20.00;20.00;;;;;16.33;100.00;101702.19;4948797;28;46319;-75
2022/10/19 04:11:13;;;;;;;;;22.33;22.00;;;;;16.27;100.00;101685.00;4949745;28;45281;-75
2022/10/19 04:13:39;;;;;;;;;16.67;16.33;;;;;16.25;100.00;101673.66;4943553;28;45303;-75
2022/10/19 04:16:05;;;;;;;;;17.33;17.33;;;;;16.33;100.00;101689.63;4943493;28;45441;-76
2022/10/19 04:18:30;;;;;;;;;21.00;20.00;;;;;16.35;100.00;101694.81;4943371;28;45349;-75
2022/10/19 04:21:02;;;;;;;;;14.67;14.67;;;;;16.33;100.00;101691.47;4943586;28;45310;-75
2022/10/19 04:23:29;;;;;;;;;17.33;17.00;;;;;16.35;100.00;101692.13;4943293;28;45537;-75
2022/10/19 04:26:03;;;;;;;;;15.00;14.00;;;;;16.29;100.00;101685.66;4960216;28;48181;-75
2022/10/19 04:28:29;;;;;;;;;17.33;16.33;;;;;16.32;100.00;101687.13;4977581;28;45929;-75
2022/10/19 04:30:55;;;;;;;;;15.00;15.00;;;;;16.31;100.00;101680.09;4945282;28;45332;-75
2022/10/19 04:33:20;;;;;;;;;13.33;13.00;;;;;16.32;100.00;101666.50;4943307;28;45365;-75
2022/10/19 04:35:45;;;;;;;;;15.00;14.67;;;;;16.33;100.00;101686.09;4943041;28;46329;-75
2022/10/19 04:38:11;;;;;;;;;14.33;14.33;;;;;16.31;100.00;101686.28;4943300;28;45378;-75
2022/10/19 04:40:37;;;;;;;;;13.67;13.00;;;;;16.32;100.00;101684.44;4955402;28;45290;-75
2022/10/19 04:43:03;;;;;;;;;11.33;10.00;;;;;16.35;100.00;101694.81;4949026;28;45191;-75
2022/10/19 04:45:29;;;;;;;;;14.33;14.33;;;;;16.33;100.00;101681.56;4960179;28;48537;-75
2022/10/19 04:47:57;;;;;;;;;15.67;14.67;;;;;16.36;100.00;101680.34;4961412;28;45245;-75
2022/10/19 04:50:24;;;;;;;;;14.33;14.33;;;;;16.28;100.00;101674.09;4961392;28;45360;-75
2022/10/19 04:52:49;;;;;;;;;16.67;15.67;;;;;16.25;100.00;101679.84;4945176;28;45693;-75
2022/10/19 04:55:14;;;;;;;;;15.33;14.67;;;;;16.24;100.00;101672.81;4950698;28;46307;-76
2022/10/19 04:57:40;;;;;;;;;16.00;16.00;;;;;16.27;100.00;101674.28;4953410;28;45345;-76
2022/10/19 05:00:06;;;;;;;;;14.00;14.00;;;;;16.19;100.00;101666.38;4942970;28;45564;-76
2022/10/19 05:02:31;;;;;;;;;16.67;15.67;;;;;16.12;100.00;101677.00;4953952;28;45365;-77
2022/10/19 05:04:56;;;;;;;;;14.00;14.00;;;;;16.09;100.00;101661.28;4942976;28;46884;-77
2022/10/19 05:07:22;;;;;;;;;17.00;16.67;;;;;16.00;100.00;101650.69;4942438;28;45539;-78
2022/10/19 05:09:47;;;;;;;;;15.00;14.00;;;;;16.02;100.00;101654.00;4946750;28;45606;-78
2022/10/19 05:12:12;;;;;;;;;15.00;15.00;;;;;15.98;100.00;101644.66;4944335;28;45398;-77
2022/10/19 05:14:38;;;;;;;;;12.67;12.67;;;;;16.01;100.00;101638.94;4942562;28;45350;-77
2022/10/19 05:17:03;;;;;;;;;18.00;17.00;;;;;15.94;100.00;101632.63;4942733;28;45344;-77
2022/10/19 05:19:28;;;;;;;;;15.00;14.33;;;;;15.99;100.00;101642.84;4947919;28;45265;-77
2022/10/19 05:21:53;;;;;;;;;17.00;16.67;;;;;15.99;100.00;101642.84;4949430;28;45282;-76
2022/10/19 05:24:19;;;;;;;;;17.67;16.67;;;;;16.06;100.00;101642.88;4956360;28;48499;-77
2022/10/19 05:26:44;;;;;;;;;18.00;17.00;;;;;15.97;100.00;101628.78;4957948;28;49006;-76
2022/10/19 05:29:11;;;;;;;;;19.67;19.33;;;;;15.99;100.00;101637.47;4950093;28;48481;-75
2022/10/19 05:31:37;;;;;;;;;11.00;10.67;;;;;15.94;100.00;101634.47;4946235;28;46251;-75
2022/10/19 05:34:03;;;;;;;;;14.67;13.33;;;;;15.96;100.00;101632.44;4948413;28;45282;-75
2022/10/19 05:36:37;;;;;;;;;16.67;15.67;;;;;15.92;100.00;101629.31;4948095;28;45347;-75
2022/10/19 05:39:10;;;;;;;;;16.00;15.00;;;;;15.90;100.00;101629.50;4942227;28;45365;-75
2022/10/19 05:41:35;;;;;;;;;16.00;15.33;;;;;15.87;100.00;101611.09;4953317;28;46799;-76
2022/10/19 05:44:02;;;;;;;;;16.33;16.33;;;;;15.89;100.00;101610.91;4941914;28;47296;-76
2022/10/19 05:46:29;;;;;;;;;18.67;18.33;;;;;15.86;100.00;101606.78;4942427;28;45395;-76
2022/10/19 05:48:56;;;;;;;;;19.67;17.67;;;;;15.90;100.00;101608.03;4954864;28;45264;-77
2022/10/19 05:51:23;;;;;;;;;23.00;21.67;;;;;15.88;100.00;101599.38;4952852;28;46061;-76
2022/10/19 05:53:48;;;;;;;;;21.00;21.00;;;;;15.79;100.00;101589.78;4958425;28;45287;-76
2022/10/19 05:56:25;;;;;;;;;21.00;19.00;;;;;15.85;100.00;101598.91;4942201;28;45336;-77
2022/10/19 05:58:50;;;;;;;;;17.00;17.00;;;;;15.87;100.00;101586.16;4972172;28;45267;-74
2022/10/19 06:01:20;;;;;;;;;14.33;13.67;;;;;15.92;100.00;101589.09;4953359;28;45330;-78
2022/10/19 06:03:49;;;;;;;;;18.00;16.00;;;;;15.92;100.00;101583.72;4966997;28;46167;-77
2022/10/19 06:06:14;;;;;;;;;17.33;17.33;;;;;15.81;100.00;101569.00;4970476;28;44813;-77
2022/10/19 06:08:40;;;;;;;;;16.33;16.33;;;;;15.93;100.00;101581.91;4972782;28;45366;-76
2022/10/19 06:11:14;;;;;;;;;18.67;17.33;;;;;15.90;100.00;101572.38;4970857;28;45370;-77
2022/10/19 06:13:41;;;;;;;;;15.00;15.00;;;;;16.00;100.00;101591.72;4957994;28;46944;-77
2022/10/19 06:16:08;;;;;;;;;17.00;15.33;;;;;15.98;100.00;101590.25;4980178;28;44861;-77
2022/10/19 06:18:34;;;;;;;;;17.00;17.00;;;;;16.02;100.00;101597.69;4962817;28;45328;-79
2022/10/19 06:21:04;;;;;;;;;17.33;15.67;;;;;16.05;100.00;101595.66;4964625;28;45413;-77
2022/10/19 06:23:31;;;;;;;;;16.33;16.00;;;;;15.91;100.00;101568.69;4952617;28;46339;-77
2022/10/19 06:25:57;;;;;;;;;14.67;14.00;;;;;16.03;100.00;101598.53;4995332;28;45431;-77
2022/10/19 06:28:22;;;;;;;;;20.00;18.00;;;;;16.02;100.00;101583.47;4958139;28;45451;-77
2022/10/19 06:30:48;;;;;;;;;17.67;17.67;;;;;16.03;100.00;101599.38;4965996;28;46485;-78
2022/10/19 06:33:13;;;;;;;;;15.67;14.33;;;;;16.00;100.00;101583.66;4952401;28;45641;-78
2022/10/19 06:35:41;;;;;;;;;19.67;18.67;;;;;16.06;100.00;101586.59;4953554;28;45268;-77
2022/10/19 06:38:06;;;;;;;;;15.67;15.00;;;;;16.11;100.00;101598.44;4942792;28;45218;-78
2022/10/19 06:40:32;;;;;;;;;21.00;21.00;;;;;16.10;100.00;101594.06;4957912;28;45594;-77
2022/10/19 06:42:57;;;;;;;;;19.00;18.00;;;;;16.10;100.00;101588.69;4960124;28;45378;-79
2022/10/19 06:45:23;;;;;;;;;19.67;19.67;;;;;16.12;100.00;101594.72;4959647;28;45370;-77
2022/10/19 06:47:48;;;;;;;;;21.00;21.00;;;;;16.21;100.00;101602.63;4960887;28;45190;-77
2022/10/19 06:50:13;;;;;;;;;22.00;21.00;;;;;16.23;100.00;101604.13;4959691;28;45984;-76
2022/10/19 06:52:39;;;;;;;;;22.00;20.00;;;;;16.24;100.00;101603.09;4961011;28;45713;-77
2022/10/19 06:55:05;;;;;;;;;22.00;20.67;;;;;16.30;100.00;101614.06;4959958;28;45363;-77
2022/10/19 06:57:31;;;;;;;;;22.67;22.67;;;;;16.25;100.00;101599.38;4959011;28;45629;-77
2022/10/19 06:59:56;;;;;;;;;20.33;18.00;;;;;16.28;100.00;101593.63;4958868;28;51687;-76
2022/10/19 07:02:21;;;;;;;;;19.33;19.33;;;;;16.37;100.00;101602.38;4957766;28;47070;-77
2022/10/19 07:04:47;;;;;;;;;21.00;20.33;;;;;16.37;100.00;101596.19;4959122;28;45378;-78
2022/10/19 07:07:12;;;;;;;;;27.00;26.00;;;;;16.36;100.00;101583.78;4958154;28;45354;-78
2022/10/19 07:09:37;;;;;;;;;20.33;20.00;;;;;16.48;100.00;101606.41;4969004;28;46068;-78
2022/10/19 07:12:03;;;;;;;;;20.33;20.33;;;;;16.48;100.00;101592.97;4940775;28;45389;-77
2022/10/19 07:14:29;;;;;;;;;18.67;18.67;;;;;16.57;100.00;101600.88;4971438;28;45730;-78
2022/10/19 07:16:54;;;;;;;;;23.00;22.00;;;;;16.51;100.00;101583.72;4941820;28;45490;-78
2022/10/19 07:19:26;;;;;;;;;26.67;25.67;;;;;16.61;100.00;101594.13;4944431;28;52259;-80
2022/10/19 07:21:52;;;;;;;;;24.67;24.67;;;;;16.64;100.00;101594.56;4959806;28;45360;-78
2022/10/19 07:24:18;;;;;;;;;26.33;26.00;;;;;16.69;100.00;101593.13;4948356;28;45313;-81
2022/10/19 07:26:43;;;;;;;;;24.67;21.67;;;;;16.70;100.00;101592.94;4974894;28;45401;-79
2022/10/19 07:29:09;;;;;;;;;26.67;24.00;;;;;16.72;100.00;101574.81;4949393;28;45468;-78
2022/10/19 07:31:34;;;;;;;;;25.67;23.33;;;;;16.74;100.00;101574.59;4940682;28;45635;-78
2022/10/19 07:34:01;;;;;;;;;18.00;15.33;;;;;16.89;100.00;101577.19;4945892;28;45409;-79
2022/10/19 07:36:29;;;;;;;;;23.00;21.67;;;;;16.94;100.00;101580.09;4940641;28;45703;-79
2022/10/19 07:38:54;;;;;;;;;27.00;25.67;;;;;17.01;100.00;101580.16;4953037;28;45403;-77
2022/10/19 07:41:22;;;;;;;;;26.00;25.00;;;;;17.04;100.00;101580.59;4940641;28;48095;-78
2022/10/19 07:43:48;;;;;;;;;25.33;24.67;;;;;17.12;100.00;101584.19;4958561;28;45385;-75
2022/10/19 07:46:19;;;;;;;;;24.33;23.00;;;;;17.19;100.00;101574.31;4950789;28;45451;-78
2022/10/19 07:48:44;;;;;;;;;25.67;23.67;;;;;17.21;100.00;101564.19;4976610;28;45972;-78
2022/10/19 07:51:12;;;;;;;;;24.00;24.00;;;;;17.27;100.00;101573.31;4952691;28;46188;-79
2022/10/19 07:53:38;;;;;;;;;21.33;21.33;;;;;17.31;100.00;101568.38;4958787;28;45337;-79
2022/10/19 07:56:08;;;;;;;;;24.67;24.00;;;;;17.37;100.00;101572.94;4948869;28;45515;-80
2022/10/19 07:58:35;;;;;;;;;23.33;22.00;;;;;17.39;100.00;101566.34;4964396;28;46343;-79
2022/10/19 08:01:06;;;;;;;;;22.67;22.33;;;;;17.46;100.00;101570.91;4954855;28;46195;-79
2022/10/19 08:03:33;;;;;;;;;22.00;21.67;;;;;17.44;100.00;101557.69;4954249;28;45277;-79
2022/10/19 08:06:03;;;;;;;;;27.33;26.00;;;;;17.52;100.00;101564.75;4954136;28;45517;-79
2022/10/19 08:08:29;;;;;;;;;24.33;22.67;;;;;17.51;100.00;101553.16;4967042;28;47758;-78
2022/10/19 08:10:55;;;;;;;;;22.67;17.00;;;;;17.60;100.00;101564.56;4970842;28;47235;-79
2022/10/19 08:13:21;;;;;;;;;22.67;21.67;;;;;17.70;100.00;101566.03;4958465;28;45230;-80
2022/10/19 08:15:46;;;;;;;;;21.00;20.33;;;;;17.74;100.00;101578.03;4955598;28;45273;-78
2022/10/19 08:18:11;;;;;;;;;21.33;21.33;;;;;17.73;100.00;101568.34;4955997;28;45163;-79
2022/10/19 08:20:40;;;;;;;;;22.33;22.33;;;;;17.82;100.00;101580.56;4955750;28;45331;-80
2022/10/19 08:23:05;;;;;;;;;26.33;26.33;;;;;17.79;100.00;101554.91;4968667;28;45508;-80
2022/10/19 08:25:31;;;;;;;;;23.33;21.67;;;;;17.92;100.00;101558.66;4997316;28;45348;-78
2022/10/19 08:27:56;;;;;;;;;20.33;19.67;;;;;17.97;100.00;101560.75;4970512;28;45849;-79
2022/10/19 08:30:22;;;;;;;;;23.00;22.33;;;;;18.04;100.00;101566.94;4973615;28;45810;-80
2022/10/19 08:32:47;;;;;;;;;21.33;21.33;;;;;18.09;100.00;101564.50;4971940;28;45327;-79
2022/10/19 08:35:12;;;;;;;;;17.33;17.33;;;;;18.07;100.00;101546.91;4962975;28;45246;-79
2022/10/19 08:37:38;;;;;;;;;19.67;19.67;;;;;18.10;100.00;101555.41;4975556;28;46094;-80
2022/10/19 08:40:04;;;;;;;;;18.33;17.67;;;;;18.19;100.00;101558.72;4960293;28;46221;-78
2022/10/19 08:42:49;;;;;;;;;20.67;20.33;;;;;18.29;100.00;101564.53;4945535;28;45207;-78
2022/10/19 08:45:24;;;;;;;;;17.67;16.00;;;;;18.33;100.00;101554.19;4944557;28;45405;-79
2022/10/19 08:48:02;;;;;;;;;17.67;17.33;;;;;18.28;100.00;101541.34;4959606;28;45634;-77
2022/10/19 08:50:39;;;;;;;;;19.67;17.67;;;;;18.35;100.00;101545.91;4970208;28;47401;-77
2022/10/19 08:53:25;;;;;;;;;17.67;17.67;;;;;18.49;100.00;101552.94;4968235;28;45448;-78
2022/10/19 08:56:16;;;;;;;;;19.00;18.00;;;;;18.55;100.00;101549.44;4969879;28;45380;-78
2022/10/19 08:59:02;;;;;;;;;17.33;15.67;;;;;18.63;100.00;101553.78;4962614;28;45484;-78
2022/10/19 09:01:45;;;;;;;;;16.33;16.00;;;;;18.72;100.00;101553.53;4964201;28;45166;-78
2022/10/19 09:04:29;;;;;;;;;17.33;16.67;;;;;18.83;100.00;101557.47;4956146;28;45157;-78
2022/10/19 09:07:28;;;;;;;;;17.67;16.33;;;;;18.91;100.00;101552.69;4965659;28;45509;-77
2022/10/19 09:09:56;;;;;;;;;13.67;13.67;;;;;18.97;100.00;101559.09;4950654;28;45234;-78
2022/10/19 09:12:46;;;;;;;;;15.67;15.33;;;;;18.97;100.00;101551.00;4972920;28;46106;-79
2022/10/19 09:15:19;;;;;;;;;17.00;16.00;;;;;19.04;100.00;101551.00;4948639;28;45221;-78
2022/10/19 09:17:45;;;;;;;;;18.00;16.33;;;;;19.03;100.00;101542.09;4964143;28;45277;-77
2022/10/19 09:20:15;;;;;;;;;18.33;17.33;;;;;19.07;100.00;101553.28;4958184;28;47342;-77
2022/10/19 09:22:42;;;;;;;;;14.33;14.33;;;;;19.03;100.00;101542.09;4966896;28;45377;-77
2022/10/19 09:25:20;;;;;;;;;15.33;14.33;;;;;19.01;100.00;101543.34;4950941;28;45439;-78
2022/10/19 09:27:59;;;;;;;;;17.67;17.67;;;;;19.08;100.00;101554.13;4954968;28;45324;-77
2022/10/19 09:30:26;;;;;;;;;15.33;15.00;;;;;19.04;100.00;101546.44;4964778;28;45548;-78
2022/10/19 09:33:01;;;;;;;;;14.00;14.00;;;;;19.02;100.00;101540.44;4970878;28;45325;-78
2022/10/19 09:35:34;;;;;;;;;19.67;18.00;;;;;19.08;100.00;101541.50;4960772;28;45459;-78
2022/10/19 09:38:00;;;;;;;;;16.33;15.33;;;;;19.05;100.00;101525.72;4951977;28;45417;-78
2022/10/19 09:40:29;;;;;;;;;14.67;14.67;;;;;19.08;100.00;101546.03;4956724;28;45429;-78
2022/10/19 09:42:58;;;;;;;;;17.00;15.00;;;;;19.09;100.00;101545.03;4964615;28;47644;-78
2022/10/19 09:45:55;;;;;;;;;16.67;16.67;;;;;19.12;100.00;101547.25;4945807;28;45219;-78
2022/10/19 09:48:38;;;;;;;;;17.67;17.67;;;;;19.20;100.00;101533.56;4954848;28;45524;-77
2022/10/19 09:51:11;;;;;;;;;15.00;14.67;;;;;19.27;100.00;101533.53;4955869;28;47253;-77
2022/10/19 09:53:37;;;;;;;;;16.33;16.33;;;;;19.29;100.00;101521.53;4966100;28;47446;-78
2022/10/19 09:56:05;;;;;;;;;16.00;15.33;;;;;19.29;100.00;101524.22;4955558;28;45404;-78
2022/10/19 09:58:31;;;;;;;;;15.33;15.33;;;;;19.38;100.00;101527.50;4962692;28;45363;-76
2022/10/19 10:00:57;;;;;;;;;17.33;17.33;;;;;19.41;100.00;101531.63;4963579;28;45390;-77
2022/10/19 10:03:34;;;;;;;;;15.67;15.67;;;;;19.41;100.00;101524.38;4946464;28;47023;-77
2022/10/19 10:06:13;;;;;;;;;16.00;15.33;;;;;19.29;100.00;101501.81;4949664;28;45918;-76
2022/10/19 10:08:57;;;;;;;;;18.00;16.67;;;;;19.34;100.00;101510.09;4949479;28;45236;-77
2022/10/19 10:11:27;;;;;;;;;12.00;12.00;;;;;19.53;100.00;101531.78;4953879;28;46384;-76
2022/10/19 10:13:54;;;;;;;;;13.67;13.33;;;;;19.54;100.00;101536.13;4947667;28;45448;-75
2022/10/19 10:16:23;;;;;;;;;14.67;14.67;;;;;19.53;100.00;101524.53;4942847;28;45364;-78
2022/10/19 10:18:59;;;;;;;;;14.67;14.67;;;;;19.61;100.00;101539.63;4953241;28;45233;-75
2022/10/19 10:21:31;;;;;;;;;15.33;15.33;;;;;19.51;100.00;101515.81;4961358;28;45486;-77
2022/10/19 10:24:15;;;;;;;;;17.33;16.33;;;;;19.67;100.00;101527.16;4948670;28;45447;-76
2022/10/19 10:26:52;;;;;;;;;17.67;16.33;;;;;19.63;100.00;101518.66;4968734;28;45184;-76
2022/10/19 10:29:24;;;;;;;;;13.67;13.67;;;;;19.65;100.00;101535.44;4958995;28;45162;-75
2022/10/19 10:31:59;;;;;;;;;19.00;17.33;;;;;19.63;100.00;101523.22;4952185;28;45238;-74
2022/10/19 10:34:29;;;;;;;;;15.00;14.00;;;;;19.59;100.00;101517.44;4968594;28;45098;-75
2022/10/19 10:36:56;;;;;;;;;18.33;16.33;;;;;19.64;100.00;101520.28;4961614;28;45425;-75
2022/10/19 10:39:23;;;;;;;;;27.00;25.67;;;;;19.70;100.00;101515.94;4949253;28;45503;-75
2022/10/19 10:41:49;;;;;;;;;21.33;19.33;;;;;19.75;100.00;101504.50;4974215;28;46098;-78
2022/10/19 10:44:22;;;;;;;;;18.00;17.33;;;;;19.92;100.00;101515.56;4943341;28;45531;-77
2022/10/19 10:47:00;;;;;;;;;17.00;16.67;;;;;19.89;100.00;101491.72;4942290;28;45342;-76
2022/10/19 10:49:27;;;;;;;;;16.33;16.00;;;;;19.99;100.00;101504.75;4949586;28;45345;-77
2022/10/19 10:52:17;;;;;;;;;17.00;17.00;;;;;20.05;100.00;101496.63;4948771;28;45407;-79
2022/10/19 10:55:08;;;;;;;;;14.00;13.00;;;;;20.10;100.00;101485.16;4948355;28;46203;-78
2022/10/19 10:57:43;;;;;;;;;17.00;16.00;;;;;20.15;100.00;101487.22;4941923;28;46106;-80
2022/10/19 11:00:12;;;;;;;;;16.33;16.33;;;;;20.15;100.00;101477.25;4953911;28;45393;-78
2022/10/19 11:02:57;;;;;;;;;19.00;18.33;;;;;20.18;100.00;101468.69;4949303;28;45456;-77
2022/10/19 11:05:32;;;;;;;;;17.00;16.67;;;;;20.18;100.00;101451.69;4946933;28;46155;-78
2022/10/19 11:08:05;;;;;;;;;13.33;13.33;;;;;20.29;100.00;101459.03;4959018;28;45375;-78
2022/10/19 11:10:51;;;;;;;;;18.00;18.00;;;;;20.36;100.00;101456.31;4942758;28;45486;-77
2022/10/19 11:13:30;;;;;;;;;17.33;15.67;;;;;20.46;100.00;101446.84;4964124;28;46588;-77